Terminal Aerodrome Forecast
Issued by NWS

Home | Current Version | Previous Version | Text Only | Print | Product List | Glossary On
Versions: 1 2 3 4 5 6 7 8 9 10 11 12 13 14 15 16 17 18 19 20 21 22 23 24 25 26 27 28 29 30 31 32 33 34 35 36 37 38 39 40 41 42 43 44 45 46 47 48 49 50
000
FTUS45 KVEF 011723
TAFLAS
TAF
KLAS 011723Z 0118/0218 16011KT P6SM VCTS BKN110CB
      TEMPO 0118/0122 VRB15G25KT 6SM -TSRA SCT070CB BKN100
     FM012200 14008KT P6SM VCTS FEW070CB BKN100
     FM020400 21008KT P6SM BKN100
     FM021500 VRB06KT P6SM SCT120=

USA.gov is the U.S. government's official web portal to all federal, state and local government web resources and services.